createdAt,value
2022-10-28T00:00:50.926Z,100871.78
2022-10-28T00:03:18.914Z,100874.56
2022-10-28T00:05:48.137Z,100864.16
2022-10-28T00:08:15.936Z,100877.31
2022-10-28T00:10:43.700Z,100868.16
2022-10-28T00:13:11.486Z,100774.69
2022-10-28T00:15:39.317Z,100875.13
2022-10-28T00:18:07.313Z,100848.72
2022-10-28T00:20:35.148Z,100864.16
2022-10-28T00:23:04.356Z,100858.66
2022-10-28T00:25:32.107Z,100853.25
2022-10-28T00:27:59.985Z,100849.38
2022-10-28T00:30:27.879Z,100869.38
2022-10-28T00:32:55.921Z,100874.81
2022-10-28T00:35:24.468Z,100861.81
2022-10-28T00:37:54.428Z,100875.66
2022-10-28T00:40:23.822Z,100878.78
2022-10-28T00:42:51.771Z,100867.38
2022-10-28T00:45:19.933Z,100880.47
2022-10-28T00:47:55.231Z,100882.69
2022-10-28T00:50:42.170Z,100871.81
2022-10-28T00:53:15.304Z,100876.41
2022-10-28T00:55:46.395Z,100877.09
2022-10-28T00:58:15.664Z,100876.44
2022-10-28T01:00:43.638Z,100873.13
2022-10-28T01:03:11.882Z,100876.81
2022-10-28T01:05:42.897Z,100875.06
2022-10-28T01:08:12.033Z,100853.44
2022-10-28T01:10:57.955Z,100860.47
2022-10-28T01:13:37.168Z,100860.47
2022-10-28T01:16:16.132Z,100855.28
2022-10-28T01:18:55.532Z,100853.97
2022-10-28T01:21:40.017Z,100852.78
2022-10-28T01:24:22.761Z,100847.97
2022-10-28T01:27:32.396Z,100849.06
2022-10-28T01:30:12.873Z,100843.28
2022-10-28T01:32:53.377Z,100845.03
2022-10-28T01:35:27.080Z,100835.88
2022-10-28T01:38:11.002Z,100841.13
2022-10-28T01:40:48.448Z,100838.63
2022-10-28T01:43:24.719Z,100829.41
2022-10-28T01:45:59.196Z,100828.06
2022-10-28T01:48:33.745Z,100828.00
2022-10-28T01:51:08.828Z,100828.75
2022-10-28T01:53:41.795Z,100820.34
2022-10-28T01:56:14.937Z,100815.09
2022-10-28T01:58:44.061Z,100810.91
2022-10-28T02:01:13.418Z,100793.56
2022-10-28T02:03:42.683Z,100810.09
2022-10-28T02:06:18.304Z,100814.34
2022-10-28T02:08:58.333Z,100812.53
2022-10-28T02:12:09.031Z,100802.72
2022-10-28T02:14:54.118Z,100785.00
2022-10-28T02:17:29.978Z,100801.09
2022-10-28T02:20:08.465Z,100801.09
2022-10-28T02:22:46.020Z,100804.19
2022-10-28T02:25:18.040Z,100801.56
2022-10-28T02:27:53.183Z,100795.44
2022-10-28T02:30:24.385Z,100792.75
2022-10-28T02:32:57.019Z,100785.22
2022-10-28T02:35:32.545Z,100782.53
2022-10-28T02:38:05.333Z,100797.59
2022-10-28T02:40:36.059Z,100784.22
2022-10-28T02:43:07.112Z,100782.72
2022-10-28T02:45:38.962Z,100780.91
2022-10-28T02:48:11.008Z,100776.28
2022-10-28T02:50:47.875Z,100762.25
2022-10-28T02:53:20.302Z,100769.06
2022-10-28T02:55:53.613Z,100773.97
2022-10-28T02:58:22.115Z,100769.75
2022-10-28T03:00:50.644Z,100763.88
2022-10-28T03:03:18.957Z,100737.81
2022-10-28T03:05:48.171Z,100750.22
2022-10-28T03:08:15.993Z,100757.31
2022-10-28T03:10:43.824Z,100756.47
2022-10-28T03:13:11.649Z,100754.25
2022-10-28T03:15:39.445Z,100756.97
2022-10-28T03:18:07.275Z,100773.97
2022-10-28T03:20:35.135Z,100774.84
2022-10-28T03:23:04.309Z,100772.09
2022-10-28T03:25:32.471Z,100756.47
2022-10-28T03:28:00.226Z,100771.69
2022-10-28T03:30:28.009Z,100753.84
2022-10-28T03:32:56.179Z,100764.97
2022-10-28T03:35:24.320Z,100704.84
2022-10-28T03:37:52.273Z,100741.50
2022-10-28T03:40:21.448Z,100692.97
2022-10-28T03:42:49.309Z,100736.91
2022-10-28T03:45:17.110Z,100737.44
2022-10-28T03:47:44.894Z,100726.31
2022-10-28T03:50:12.780Z,100643.22
2022-10-28T03:52:40.596Z,100725.03
2022-10-28T03:55:09.185Z,100702.56
2022-10-28T03:57:38.366Z,100721.50
2022-10-28T04:00:07.827Z,100735.53
2022-10-28T04:02:41.418Z,100720.97
2022-10-28T04:05:09.580Z,100726.09
2022-10-28T04:07:37.450Z,100742.22
2022-10-28T04:10:05.626Z,100738.59
2022-10-28T04:12:33.439Z,100690.19
2022-10-28T04:15:02.637Z,100724.13
2022-10-28T04:17:30.881Z,100729.75
2022-10-28T04:19:58.692Z,100725.88
2022-10-28T04:22:26.480Z,100629.03
2022-10-28T04:24:55.085Z,100714.28
2022-10-28T04:27:22.960Z,100715.56
2022-10-28T04:29:50.839Z,100715.63
2022-10-28T04:32:19.986Z,100706.09
2022-10-28T04:34:47.850Z,100706.19
2022-10-28T04:37:19.640Z,100710.09
2022-10-28T04:39:48.478Z,100697.94
2022-10-28T04:42:16.553Z,100684.59
2022-10-28T04:44:44.268Z,100644.19
2022-10-28T04:47:12.180Z,100697.47
2022-10-28T04:49:41.471Z,100671.00
2022-10-28T04:52:12.050Z,100675.53
2022-10-28T04:54:42.700Z,100669.56
2022-10-28T04:57:10.550Z,100685.00
2022-10-28T04:59:38.397Z,100681.97
2022-10-28T05:02:06.374Z,100683.16
2022-10-28T05:04:34.290Z,100653.88
2022-10-28T05:07:03.470Z,100688.06
2022-10-28T05:09:31.286Z,100675.38
2022-10-28T05:11:59.063Z,100683.34
2022-10-28T05:14:26.877Z,100676.28
2022-10-28T05:16:54.676Z,100668.72
2022-10-28T05:19:22.577Z,100686.97
2022-10-28T05:21:50.425Z,100651.88
2022-10-28T05:24:19.556Z,100673.81
2022-10-28T05:26:47.677Z,100639.31
2022-10-28T05:29:15.472Z,100682.22
2022-10-28T05:31:43.226Z,100683.06
2022-10-28T05:34:11.020Z,100676.41
2022-10-28T05:36:39.348Z,100678.97
2022-10-28T05:39:07.506Z,100682.72
2022-10-28T05:41:38.855Z,100675.25
2022-10-28T05:44:07.236Z,100682.84
2022-10-28T05:46:34.981Z,100685.06
2022-10-28T05:49:02.835Z,100667.44
2022-10-28T05:51:30.719Z,100659.84
2022-10-28T05:53:58.516Z,100665.47
2022-10-28T05:56:26.352Z,100671.97
2022-10-28T05:58:57.176Z,100677.50
2022-10-28T06:01:25.090Z,100673.19
2022-10-28T06:03:52.927Z,100666.91
2022-10-28T06:06:20.811Z,100648.63
2022-10-28T06:08:48.589Z,100681.72
2022-10-28T06:11:14.843Z,100680.97
2022-10-28T06:13:42.796Z,100673.00
2022-10-28T06:16:11.986Z,100682.94
2022-10-28T06:18:39.753Z,100678.81
2022-10-28T06:21:07.737Z,100684.59
2022-10-28T06:23:35.466Z,100689.38
2022-10-28T06:26:04.421Z,100690.47
2022-10-28T06:28:32.571Z,100691.56
2022-10-28T06:31:04.688Z,100697.00
2022-10-28T06:33:34.632Z,100707.53
2022-10-28T06:36:03.378Z,100706.72
2022-10-28T06:38:31.189Z,100689.97
2022-10-28T06:40:59.224Z,100706.00
2022-10-28T06:43:27.038Z,100710.75
2022-10-28T06:45:55.753Z,100707.00
2022-10-28T06:48:25.822Z,100702.44
2022-10-28T06:50:57.981Z,100701.44
2022-10-28T06:53:26.120Z,100604.38
2022-10-28T06:55:54.339Z,100718.59
2022-10-28T06:58:22.317Z,100717.47
2022-10-28T07:00:50.646Z,100717.66
2022-10-28T07:03:19.728Z,100729.16
2022-10-28T07:05:49.189Z,100722.16
2022-10-28T07:08:18.570Z,100715.44
2022-10-28T07:10:53.844Z,100745.91
2022-10-28T07:13:21.647Z,100730.22
2022-10-28T07:15:53.491Z,100734.75
2022-10-28T07:18:21.848Z,100737.81
2022-10-28T07:20:49.928Z,100734.25
2022-10-28T07:23:19.176Z,100737.84
2022-10-28T07:28:27.682Z,100736.19
2022-10-28T07:30:56.072Z,100735.75
2022-10-28T07:33:23.930Z,100649.41
2022-10-28T07:35:51.768Z,100745.97
2022-10-28T07:38:21.198Z,100684.69
2022-10-28T07:40:49.034Z,100734.00
2022-10-28T07:43:17.086Z,100722.56
2022-10-28T07:45:44.914Z,100731.81
2022-10-28T07:48:12.799Z,100694.63
2022-10-28T07:50:41.303Z,100735.31
2022-10-28T07:53:09.310Z,100731.56
2022-10-28T07:55:38.617Z,100694.44
2022-10-28T07:58:06.426Z,100735.50
2022-10-28T08:00:34.346Z,100734.38
2022-10-28T08:03:03.694Z,100729.47
2022-10-28T08:05:31.505Z,100726.56
2022-10-28T08:07:59.358Z,100732.94
2022-10-28T08:10:27.990Z,100727.44
2022-10-28T08:12:58.907Z,100734.59
2022-10-28T08:15:27.391Z,100737.44
2022-10-28T08:17:55.860Z,100737.38
2022-10-28T08:20:24.278Z,100732.03
2022-10-28T08:22:52.519Z,100725.03
2022-10-28T08:25:20.802Z,100683.66
2022-10-28T08:27:48.623Z,100725.59
2022-10-28T08:30:18.547Z,100693.34
2022-10-28T08:32:46.338Z,100731.03
2022-10-28T08:35:14.329Z,100701.06
2022-10-28T08:37:46.117Z,100721.31
2022-10-28T08:40:14.714Z,100684.72
2022-10-28T08:42:48.486Z,100679.13
2022-10-28T08:45:26.461Z,100687.94
2022-10-28T08:48:10.689Z,100705.63
2022-10-28T08:50:47.674Z,100711.00
2022-10-28T08:53:20.524Z,100719.59
2022-10-28T08:55:51.828Z,100707.97
2022-10-28T08:58:24.869Z,100702.13
2022-10-28T09:00:56.004Z,100682.41
2022-10-28T09:03:26.877Z,100716.59
2022-10-28T09:06:01.408Z,100692.03
2022-10-28T09:08:32.915Z,100622.16
2022-10-28T09:11:34.986Z,100703.47
2022-10-28T09:14:15.144Z,100722.31
2022-10-28T09:16:48.580Z,100724.50
2022-10-28T09:19:26.812Z,100718.59
2022-10-28T09:22:08.237Z,100718.84
2022-10-28T09:24:45.530Z,100719.50
2022-10-28T09:27:24.213Z,100716.47
2022-10-28T09:30:03.711Z,100721.59
2022-10-28T09:32:43.788Z,100723.44
2022-10-28T09:35:15.036Z,100724.41
2022-10-28T09:37:48.691Z,100726.81
2022-10-28T09:40:20.793Z,100722.25
2022-10-28T09:43:07.521Z,100702.44
2022-10-28T09:45:38.781Z,100734.31
2022-10-28T09:48:17.987Z,100726.25
2022-10-28T09:50:45.920Z,100721.88
2022-10-28T09:53:19.767Z,100720.44
2022-10-28T09:55:47.703Z,100721.44
2022-10-28T09:58:15.528Z,100727.47
2022-10-28T10:00:43.420Z,100729.84
2022-10-28T10:03:12.636Z,100727.47
2022-10-28T10:05:44.493Z,100723.88
2022-10-28T10:08:15.891Z,100721.28
2022-10-28T10:10:48.931Z,100718.16
2022-10-28T10:13:21.218Z,100673.81
2022-10-28T10:15:53.774Z,100720.03
2022-10-28T10:18:25.625Z,100722.09
2022-10-28T10:20:55.886Z,100719.38
2022-10-28T10:23:28.366Z,100726.53
2022-10-28T10:26:04.475Z,100723.09
2022-10-28T10:28:37.964Z,100724.91
2022-10-28T10:31:08.702Z,100721.00
2022-10-28T10:33:40.449Z,100713.56
2022-10-28T10:36:17.066Z,100713.81
2022-10-28T10:38:50.132Z,100566.53
2022-10-28T10:41:35.660Z,100716.75
2022-10-28T10:44:03.563Z,100705.88
2022-10-28T10:46:31.376Z,100713.53
2022-10-28T10:49:14.886Z,100703.91
2022-10-28T10:51:52.478Z,100684.44
2022-10-28T10:54:21.649Z,100689.75
2022-10-28T10:56:49.649Z,100702.88
2022-10-28T10:59:24.221Z,100702.25
2022-10-28T11:01:52.697Z,100688.78
2022-10-28T11:04:25.345Z,100692.75
2022-10-28T11:06:55.757Z,100687.97
2022-10-28T11:09:31.286Z,100688.22
2022-10-28T11:11:59.198Z,100687.78
2022-10-28T11:14:29.387Z,100686.91
2022-10-28T11:16:57.744Z,100682.69
2022-10-28T11:19:31.690Z,100655.28
2022-10-28T11:22:13.669Z,100671.78
2022-10-28T11:25:09.389Z,100672.19
2022-10-28T11:27:55.289Z,100669.66
2022-10-28T11:30:36.242Z,100667.69
2022-10-28T11:33:29.429Z,100657.84
2022-10-28T11:36:10.031Z,100664.63
2022-10-28T11:38:56.545Z,100659.53
2022-10-28T11:41:33.512Z,100670.34
2022-10-28T11:44:05.339Z,100600.28
2022-10-28T11:46:44.506Z,100670.69
2022-10-28T11:49:42.797Z,100676.72
2022-10-28T11:52:28.899Z,100663.13
2022-10-28T11:55:13.584Z,100662.66
2022-10-28T11:57:56.519Z,100666.00
2022-10-28T12:00:44.686Z,100650.25
2022-10-28T12:03:36.077Z,100655.22
2022-10-28T12:06:13.530Z,100630.94
2022-10-28T12:08:56.837Z,100521.53
2022-10-28T12:11:34.408Z,100646.25
2022-10-28T12:14:11.059Z,100645.91
2022-10-28T12:16:44.307Z,100650.84
2022-10-28T12:19:16.146Z,100651.28
2022-10-28T12:21:48.817Z,100650.28
2022-10-28T12:24:22.457Z,100652.81
2022-10-28T12:26:54.502Z,100653.59
2022-10-28T12:29:26.564Z,100648.22
2022-10-28T12:31:59.938Z,100650.34
2022-10-28T12:34:34.281Z,100642.09
2022-10-28T12:37:07.104Z,100652.44
2022-10-28T12:39:42.376Z,100636.94
2022-10-28T12:42:15.238Z,100645.13
2022-10-28T12:44:45.331Z,100628.38
2022-10-28T12:47:20.265Z,100643.66
2022-10-28T12:50:01.308Z,100635.69
2022-10-28T12:52:37.857Z,100621.28
2022-10-28T12:55:18.715Z,100633.47
2022-10-28T12:57:52.932Z,100614.97
2022-10-28T13:00:24.857Z,100621.09
2022-10-28T13:03:00.711Z,100624.66
2022-10-28T13:05:35.578Z,100607.75
2022-10-28T13:08:40.001Z,100623.28
2022-10-28T13:11:46.264Z,100614.50
2022-10-28T13:14:32.180Z,100612.28
2022-10-28T13:17:20.495Z,100608.72
2022-10-28T13:20:11.131Z,100614.63
2022-10-28T13:23:02.298Z,100608.81
2022-10-28T13:25:55.120Z,100615.78
2022-10-28T13:28:33.653Z,100614.03
2022-10-28T13:31:05.656Z,100593.22
2022-10-28T13:33:36.737Z,100609.22
2022-10-28T13:36:19.419Z,100606.69
2022-10-28T13:38:53.935Z,100592.22
2022-10-28T13:41:34.543Z,100606.00
2022-10-28T13:44:30.678Z,100604.84
2022-10-28T13:47:26.163Z,100599.28
2022-10-28T13:50:21.517Z,100597.31
2022-10-28T13:53:43.170Z,100595.09
2022-10-28T13:56:39.683Z,100591.47
2022-10-28T13:59:20.547Z,100595.81
2022-10-28T14:02:01.932Z,100590.22
2022-10-28T14:04:44.923Z,100579.56
2022-10-28T14:07:22.577Z,100581.69
2022-10-28T14:09:53.918Z,100583.63
2022-10-28T14:12:33.529Z,100580.81
2022-10-28T14:15:17.020Z,100580.56
2022-10-28T14:17:49.970Z,100582.69
2022-10-28T14:20:28.029Z,100575.88
2022-10-28T14:22:56.301Z,100580.06
2022-10-28T14:26:01.819Z,100583.44
2022-10-28T14:28:52.847Z,100574.00
2022-10-28T14:31:33.956Z,100557.13
2022-10-28T14:34:44.584Z,100579.72
2022-10-28T14:37:53.518Z,100571.88
2022-10-28T14:40:32.608Z,100573.97
2022-10-28T14:43:17.644Z,100568.25
2022-10-28T14:46:02.301Z,100568.34
2022-10-28T14:48:51.598Z,100554.28
2022-10-28T14:51:22.898Z,100567.66
2022-10-28T14:53:56.506Z,100564.47
2022-10-28T14:56:26.874Z,100558.72
2022-10-28T14:58:58.583Z,100557.75
2022-10-28T15:01:28.605Z,100569.09
2022-10-28T15:04:00.121Z,100555.47
2022-10-28T15:06:41.591Z,100565.34
2022-10-28T15:09:21.832Z,100560.38
2022-10-28T15:11:51.547Z,100564.06
2022-10-28T15:14:29.241Z,100553.63
2022-10-28T15:16:57.557Z,100558.66
2022-10-28T15:19:27.283Z,100559.78
2022-10-28T15:22:07.475Z,100586.41
2022-10-28T15:24:36.477Z,100577.94
2022-10-28T15:27:04.649Z,100584.91
2022-10-28T15:29:32.695Z,100581.22
2022-10-28T15:32:11.378Z,100585.56
2022-10-28T15:34:39.177Z,100584.25
2022-10-28T15:37:07.983Z,100566.25
2022-10-28T15:39:37.538Z,100574.94
2022-10-28T15:42:27.938Z,100565.66
2022-10-28T15:44:57.043Z,100551.81
2022-10-28T15:47:32.799Z,100583.47
2022-10-28T15:50:03.704Z,100588.03
2022-10-28T15:52:50.286Z,100581.03
2022-10-28T15:58:34.118Z,100586.88
2022-10-28T16:01:01.748Z,100589.25
2022-10-28T16:03:42.887Z,100580.78
2022-10-28T16:06:24.683Z,100574.84
2022-10-28T16:09:05.539Z,100559.03
2022-10-28T16:11:39.268Z,100591.63
2022-10-28T16:14:28.850Z,100590.50
2022-10-28T16:16:59.887Z,100578.50
2022-10-28T16:19:30.750Z,100604.38
2022-10-28T16:21:58.635Z,100611.25
2022-10-28T16:24:26.457Z,100603.78
2022-10-28T16:27:09.252Z,100624.69
2022-10-28T16:29:37.102Z,100613.72
2022-10-28T16:32:05.168Z,100621.25
2022-10-28T16:34:33.136Z,100623.19
2022-10-28T16:37:00.910Z,100555.34
2022-10-28T16:39:28.759Z,100632.53
2022-10-28T16:41:58.906Z,100523.56
2022-10-28T16:44:27.193Z,100632.09
2022-10-28T16:46:54.997Z,100625.97
2022-10-28T16:49:22.801Z,100635.94
2022-10-28T16:51:50.659Z,100633.16
2022-10-28T16:54:18.423Z,100638.00
2022-10-28T16:56:46.206Z,100628.31
2022-10-28T16:59:15.604Z,100639.97
2022-10-28T17:01:43.495Z,100654.69
2022-10-28T17:04:11.597Z,100653.69
2022-10-28T17:06:39.475Z,100630.13
2022-10-28T17:09:07.244Z,100672.34
2022-10-28T17:11:35.110Z,100661.59
2022-10-28T17:14:02.962Z,100648.22
2022-10-28T17:16:32.167Z,100659.84
2022-10-28T17:19:00.032Z,100659.75
2022-10-28T17:21:27.857Z,100659.94
2022-10-28T17:23:55.750Z,100571.75
2022-10-28T17:26:23.541Z,100664.56
2022-10-28T17:28:54.549Z,100671.22
2022-10-28T17:31:25.067Z,100665.50
2022-10-28T17:33:57.795Z,100683.28
2022-10-28T17:36:25.710Z,100677.88
2022-10-28T17:38:53.543Z,100680.22
2022-10-28T17:41:21.449Z,100655.69
2022-10-28T17:43:49.313Z,100669.09
2022-10-28T17:46:17.167Z,100680.56
2022-10-28T17:48:44.969Z,100683.69
2022-10-28T17:51:14.553Z,100683.03
2022-10-28T17:53:42.403Z,100674.66
2022-10-28T17:56:10.842Z,100655.59
2022-10-28T17:58:38.821Z,100691.91
2022-10-28T18:01:08.873Z,100681.88
2022-10-28T18:03:38.947Z,100692.53
2022-10-28T18:06:10.265Z,100697.44
2022-10-28T18:08:41.463Z,100699.97
2022-10-28T18:11:11.283Z,100704.28
2022-10-28T18:13:40.737Z,100716.19
2022-10-28T18:16:11.037Z,100711.50
2022-10-28T18:18:42.265Z,100673.00
2022-10-28T18:21:10.905Z,100719.34
2022-10-28T18:23:40.950Z,100711.06
2022-10-28T18:26:12.220Z,100717.00
2022-10-28T18:28:41.068Z,100689.25
2022-10-28T18:31:12.240Z,100720.84
2022-10-28T18:33:40.837Z,100730.78
2022-10-28T18:36:12.242Z,100723.44
2022-10-28T18:38:41.903Z,100685.56
2022-10-28T18:41:11.751Z,100655.91
2022-10-28T18:43:39.769Z,100715.66
2022-10-28T18:46:08.157Z,100687.81
2022-10-28T18:48:36.261Z,100719.59
2022-10-28T18:51:07.416Z,100686.25
2022-10-28T18:53:36.784Z,100714.47
2022-10-28T18:56:07.233Z,100740.13
2022-10-28T18:58:35.808Z,100728.09
2022-10-28T19:01:08.786Z,100737.06
2022-10-28T19:03:36.933Z,100723.97
2022-10-28T19:06:06.590Z,100742.47
2022-10-28T19:08:34.782Z,100740.88
2022-10-28T19:11:03.692Z,100736.59
2022-10-28T19:13:36.494Z,100742.06
2022-10-28T19:16:05.084Z,100713.47
2022-10-28T19:18:35.567Z,100753.53
2022-10-28T19:21:04.283Z,100760.81
2022-10-28T19:23:32.621Z,100765.38
2022-10-28T19:26:01.269Z,100762.88
2022-10-28T19:28:29.288Z,100767.41
2022-10-28T19:31:04.641Z,100765.13
2022-10-28T19:33:33.008Z,100765.25
2022-10-28T19:36:06.810Z,100737.31
2022-10-28T19:38:36.457Z,100732.78
2022-10-28T19:41:06.009Z,100766.84
2022-10-28T19:43:34.298Z,100770.66
2022-10-28T19:46:10.310Z,100774.16
2022-10-28T19:48:38.971Z,100774.63
2022-10-28T19:51:07.715Z,100785.28
2022-10-28T19:53:36.294Z,100761.63
2022-10-28T19:56:05.046Z,100786.47
2022-10-28T19:58:33.370Z,100784.78
2022-10-28T20:01:03.464Z,100805.69
2022-10-28T20:03:34.640Z,100796.56
2022-10-28T20:06:06.116Z,100703.53
2022-10-28T20:08:38.070Z,100759.84
2022-10-28T20:11:07.457Z,100806.38
2022-10-28T20:13:36.126Z,100818.63
2022-10-28T20:16:06.638Z,100825.16
2022-10-28T20:18:36.025Z,100826.41
2022-10-28T20:21:05.511Z,100837.28
2022-10-28T20:23:35.588Z,100841.00
2022-10-28T20:26:04.704Z,100844.72
2022-10-28T20:28:32.925Z,100835.63
2022-10-28T20:31:02.202Z,100854.47
2022-10-28T20:33:31.221Z,100860.00
2022-10-28T20:36:00.449Z,100847.75
2022-10-28T20:38:28.888Z,100860.38
2022-10-28T20:40:58.348Z,100848.50
2022-10-28T20:43:27.551Z,100862.06
2022-10-28T20:45:58.616Z,100870.09
2022-10-28T20:48:27.629Z,100873.66
2022-10-28T20:50:57.309Z,100871.03
2022-10-28T20:53:28.512Z,100877.22
2022-10-28T20:55:58.201Z,100878.31
2022-10-28T20:58:29.273Z,100882.47
2022-10-28T21:01:03.441Z,100890.56
2022-10-28T21:03:31.308Z,100887.00
2022-10-28T21:05:59.121Z,100886.41
2022-10-28T21:08:28.389Z,100878.31
2022-10-28T21:10:56.640Z,100892.75
2022-10-28T21:13:24.678Z,100890.47
2022-10-28T21:15:56.525Z,100893.38
2022-10-28T21:18:25.982Z,100884.97
2022-10-28T21:20:57.305Z,100842.13
2022-10-28T21:23:25.961Z,100877.16
2022-10-28T21:25:55.614Z,100885.63
2022-10-28T21:28:24.164Z,100866.50
2022-10-28T21:30:52.095Z,100890.22
2022-10-28T21:33:19.938Z,100890.22
2022-10-28T21:35:56.561Z,100884.72
2022-10-28T21:38:24.904Z,100883.56
2022-10-28T21:41:01.961Z,100798.44
2022-10-28T21:43:30.716Z,100866.44
2022-10-28T21:45:59.015Z,100886.47
2022-10-28T21:48:27.990Z,100885.81
2022-10-28T21:50:57.403Z,100882.47
2022-10-28T21:53:25.901Z,100879.13
2022-10-28T21:55:55.657Z,100879.41
2022-10-28T21:58:24.974Z,100889.81
2022-10-28T22:00:52.822Z,100883.72
2022-10-28T22:03:20.740Z,100881.19
2022-10-28T22:05:52.038Z,100885.91
2022-10-28T22:08:19.823Z,100891.44
2022-10-28T22:10:47.689Z,100897.84
2022-10-28T22:13:15.601Z,100874.75
2022-10-28T22:15:44.828Z,100881.00
2022-10-28T22:18:12.665Z,100825.19
2022-10-28T22:20:40.656Z,100893.34
2022-10-28T22:23:08.654Z,100913.97
2022-10-28T22:25:36.476Z,100921.31
2022-10-28T22:28:04.547Z,100909.38
2022-10-28T22:30:32.334Z,100910.53
2022-10-28T22:33:01.676Z,100920.41
2022-10-28T22:35:29.640Z,100922.09
2022-10-28T22:37:57.623Z,100925.44
2022-10-28T22:40:25.635Z,100908.13
2022-10-28T22:42:53.453Z,100931.75
2022-10-28T22:45:21.234Z,100934.84
2022-10-28T22:47:50.352Z,100923.00
2022-10-28T22:50:19.586Z,100929.19
2022-10-28T22:52:47.458Z,100927.66
2022-10-28T22:55:15.610Z,100939.50
2022-10-28T22:57:43.445Z,100913.28
2022-10-28T23:00:12.525Z,100940.66
2022-10-28T23:02:40.551Z,100938.06
2022-10-28T23:05:09.443Z,100936.50
2022-10-28T23:07:38.602Z,100938.88
2022-10-28T23:10:07.303Z,100948.66
2022-10-28T23:12:35.093Z,100947.78
2022-10-28T23:15:02.900Z,100950.47
2022-10-28T23:17:30.685Z,100947.63
2022-10-28T23:19:58.556Z,100932.47
2022-10-28T23:22:26.334Z,100938.84
2022-10-28T23:24:55.735Z,100941.38
2022-10-28T23:27:23.803Z,100938.63
2022-10-28T23:29:51.581Z,100909.16
2022-10-28T23:32:19.352Z,100952.22
2022-10-28T23:34:47.462Z,100954.38
2022-10-28T23:37:15.295Z,100944.16
2022-10-28T23:39:43.249Z,100952.25
2022-10-28T23:42:12.380Z,100948.59
2022-10-28T23:44:40.581Z,100931.13
2022-10-28T23:47:08.481Z,100954.66
2022-10-28T23:49:36.337Z,100957.38
2022-10-28T23:52:04.462Z,100957.16
2022-10-28T23:54:32.263Z,100952.59
2022-10-28T23:57:00.187Z,100958.59
2022-10-28T23:59:29.420Z,100949.41
